Time;durP1;ratioP1;P1;durP2;ratioP2;P2;SDS_P1;SDS_P2;PMS_P1;PMS_P2;Temp;Humidity;BMP_temperature;BMP_pressure;BME280_temperature;BME280_humidity;BME280_pressure;Samples;Min_cycle;Max_cycle;Signal;HPM_P1;HPM_P2
2022/01/11 00:00:54;;;;;;;40.40;20.75;;;0.40;99.90;;;;;;5011085;28;20053;-58
2022/01/11 00:03:20;;;;;;;54.00;22.15;;;0.40;99.90;;;;;;5010579;28;20042;-58
2022/01/11 00:05:54;;;;;;;26.67;19.25;;;0.40;99.90;;;;;;5010778;28;20045;-58
2022/01/11 00:08:28;;;;;;;37.30;20.08;;;0.40;99.90;;;;;;5010845;28;20052;-58
2022/01/11 00:11:02;;;;;;;45.42;21.20;;;0.40;99.90;;;;;;5010557;28;20481;-58
2022/01/11 00:13:28;;;;;;;55.47;20.67;;;0.40;99.90;;;;;;5010615;28;20369;-58
2022/01/11 00:15:54;;;;;;;47.35;21.38;;;0.40;99.90;;;;;;5010801;28;20037;-58
2022/01/11 00:18:19;;;;;;;30.20;19.45;;;0.40;99.90;;;;;;5010396;28;20038;-58
2022/01/11 00:20:45;;;;;;;36.45;19.60;;;0.40;99.90;;;;;;5010525;28;20127;-58
2022/01/11 00:25:41;;;;;;;31.30;20.48;;;0.30;99.90;;;;;;5010451;28;20046;-58
2022/01/11 00:28:08;;;;;;;29.38;19.73;;;0.30;99.90;;;;;;5010500;28;20424;-58
2022/01/11 00:30:36;;;;;;;27.90;19.52;;;0.40;99.90;;;;;;5010627;28;20077;-58
2022/01/11 00:33:07;;;;;;;29.42;19.35;;;0.40;99.90;;;;;;5010583;28;20048;-58
2022/01/11 00:35:44;;;;;;;28.08;19.92;;;0.30;99.90;;;;;;5010488;28;20565;-58
2022/01/11 00:38:15;;;;;;;32.70;20.10;;;0.30;99.90;;;;;;5010258;28;20081;-58
2022/01/11 00:40:53;;;;;;;28.48;19.50;;;0.40;99.90;;;;;;5010417;28;20095;-58
2022/01/11 00:43:21;;;;;;;28.77;19.45;;;0.30;99.90;;;;;;5010150;28;20054;-58
2022/01/11 00:45:48;;;;;;;28.23;18.92;;;0.30;99.90;;;;;;5010174;28;20081;-58
2022/01/11 00:48:14;;;;;;;35.10;20.35;;;0.30;99.90;;;;;;5010176;28;20472;-58
2022/01/11 00:50:40;;;;;;;25.02;18.27;;;0.30;99.90;;;;;;5010276;28;20507;-58
2022/01/11 00:53:07;;;;;;;28.33;18.67;;;0.30;99.90;;;;;;5010378;28;20116;-58
2022/01/11 00:55:34;;;;;;;35.00;19.88;;;0.30;99.90;;;;;;5010432;28;20064;-58
2022/01/11 00:58:02;;;;;;;30.60;19.60;;;0.20;99.90;;;;;;5010080;28;20050;-58
2022/01/11 01:00:29;;;;;;;28.80;19.65;;;0.20;99.90;;;;;;5010609;28;20095;-58
2022/01/11 01:02:55;;;;;;;28.65;17.88;;;0.20;99.90;;;;;;5012742;28;20042;-58
2022/01/11 01:05:21;;;;;;;28.48;19.38;;;0.20;99.90;;;;;;5013432;28;20045;-58
2022/01/11 01:07:48;;;;;;;29.55;20.25;;;0.20;99.90;;;;;;5012334;28;20085;-58
2022/01/11 01:10:25;;;;;;;39.20;19.80;;;0.10;99.90;;;;;;5013566;28;20034;-58
2022/01/11 01:12:52;;;;;;;49.63;21.52;;;0.10;99.90;;;;;;5013641;28;20034;-58
2022/01/11 01:15:19;;;;;;;32.63;20.42;;;0.00;99.90;;;;;;5013647;28;20041;-58
2022/01/11 01:17:44;;;;;;;30.23;19.08;;;0.10;99.90;;;;;;5013601;28;20045;-58
2022/01/11 01:20:10;;;;;;;31.65;19.58;;;0.10;99.90;;;;;;5013675;28;20041;-58
2022/01/11 01:22:36;;;;;;;73.78;21.70;;;0.00;99.90;;;;;;5013509;28;20048;-58
2022/01/11 01:25:02;;;;;;;69.68;21.27;;;0.00;99.90;;;;;;5013311;28;20117;-58
2022/01/11 01:27:28;;;;;;;75.03;21.33;;;-0.10;99.90;;;;;;5013339;28;20042;-58
2022/01/11 01:29:54;;;;;;;75.70;22.45;;;-0.10;99.90;;;;;;5013477;28;20090;-58
2022/01/11 01:32:19;;;;;;;65.68;21.73;;;-0.20;99.90;;;;;;5013408;28;20045;-58
2022/01/11 01:34:45;;;;;;;77.47;23.23;;;-0.20;99.90;;;;;;5013264;28;20036;-58
2022/01/11 01:37:10;;;;;;;49.78;21.88;;;-0.20;99.90;;;;;;5013389;28;20392;-58
2022/01/11 01:39:36;;;;;;;55.55;23.38;;;-0.30;99.90;;;;;;5013494;28;20041;-58
2022/01/11 01:42:04;;;;;;;43.03;22.63;;;-0.20;99.90;;;;;;5013086;28;20046;-58
2022/01/11 01:44:32;;;;;;;43.80;21.05;;;-0.20;99.90;;;;;;5013330;28;20387;-58
2022/01/11 01:46:58;;;;;;;37.40;21.15;;;-0.10;99.90;;;;;;5013251;28;20045;-58
2022/01/11 01:49:23;;;;;;;55.45;22.05;;;-0.10;99.90;;;;;;5013206;28;20410;-58
2022/01/11 01:51:50;;;;;;;35.88;21.20;;;0.00;99.90;;;;;;5013040;28;20038;-58
2022/01/11 01:54:16;;;;;;;68.32;22.08;;;0.00;99.90;;;;;;5011937;28;20091;-58
2022/01/11 01:56:43;;;;;;;43.63;20.85;;;0.00;99.90;;;;;;5012988;28;20121;-58
2022/01/11 01:59:09;;;;;;;58.15;21.70;;;0.00;99.90;;;;;;5012918;28;20101;-58
2022/01/11 02:01:42;;;;;;;49.33;22.45;;;0.00;99.90;;;;;;5013164;28;20042;-58
2022/01/11 02:04:08;;;;;;;59.80;24.25;;;0.00;99.90;;;;;;5012981;28;20053;-58
2022/01/11 02:06:33;;;;;;;35.25;23.65;;;-0.10;99.90;;;;;;5011854;28;20396;-58
2022/01/11 02:08:59;;;;;;;41.28;23.63;;;-0.10;99.90;;;;;;5012813;28;20041;-58
2022/01/11 02:11:25;;;;;;;32.40;21.60;;;-0.10;99.90;;;;;;5013242;28;20030;-58
2022/01/11 02:13:51;;;;;;;44.78;24.02;;;-0.10;99.90;;;;;;5012773;28;20533;-58
2022/01/11 02:16:21;;;;;;;37.88;23.00;;;-0.10;99.90;;;;;;5012620;28;20073;-58
2022/01/11 02:18:47;;;;;;;39.92;23.00;;;0.00;99.90;;;;;;5012845;28;20057;-58
2022/01/11 02:21:12;;;;;;;37.90;22.38;;;-0.10;99.90;;;;;;5012828;28;20038;-58
2022/01/11 02:23:38;;;;;;;40.10;23.40;;;0.00;99.90;;;;;;5012826;28;20483;-58
2022/01/11 02:26:04;;;;;;;39.13;22.67;;;0.00;99.90;;;;;;5012726;28;20038;-58
2022/01/11 02:28:31;;;;;;;36.10;22.85;;;0.00;99.90;;;;;;5012736;28;20038;-58
2022/01/11 02:30:59;;;;;;;43.60;23.83;;;0.00;99.90;;;;;;5012424;28;20495;-58
2022/01/11 02:33:37;;;;;;;39.92;24.30;;;0.00;99.90;;;;;;5012264;28;20098;-58
2022/01/11 02:36:08;;;;;;;39.22;23.38;;;0.10;99.90;;;;;;5012174;28;20053;-57
2022/01/11 02:38:35;;;;;;;41.40;23.67;;;0.10;99.90;;;;;;5012426;28;20050;-58
2022/01/11 02:41:01;;;;;;;41.72;23.88;;;0.10;99.90;;;;;;5012163;28;20396;-55
2022/01/11 02:43:27;;;;;;;41.53;22.92;;;0.10;99.90;;;;;;5012406;28;20403;-58
2022/01/11 02:45:54;;;;;;;50.78;27.85;;;0.10;99.90;;;;;;5012082;28;20043;-58
2022/01/11 02:48:21;;;;;;;41.70;24.95;;;0.10;99.90;;;;;;5012196;28;20159;-58
2022/01/11 02:50:48;;;;;;;47.65;25.75;;;0.10;99.90;;;;;;5012173;28;20385;-58
2022/01/11 02:53:14;;;;;;;41.05;23.73;;;0.10;99.90;;;;;;5012228;28;20373;-58
2022/01/11 02:55:43;;;;;;;42.78;25.42;;;0.20;99.90;;;;;;5012095;28;20042;-58
2022/01/11 02:58:12;;;;;;;50.47;24.57;;;0.20;99.90;;;;;;5012048;28;20042;-58
2022/01/11 03:00:40;;;;;;;;;;;0.20;99.90;;;;;;5012555;28;20045;-58
2022/01/11 03:03:11;;;;;;;48.63;25.98;;;0.20;99.90;;;;;;5011841;28;20306;-58
2022/01/11 03:05:43;;;;;;;51.28;26.45;;;0.20;99.90;;;;;;5012107;28;20091;-58
2022/01/11 03:08:10;;;;;;;45.05;25.55;;;0.20;99.90;;;;;;5011931;28;20044;-58
2022/01/11 03:10:36;;;;;;;56.53;26.63;;;0.20;99.90;;;;;;5010396;28;20041;-58
2022/01/11 03:13:04;;;;;;;55.40;26.75;;;0.30;99.90;;;;;;5011734;28;20122;-58
2022/01/11 03:15:30;;;;;;;61.30;26.73;;;0.30;99.90;;;;;;5011664;28;20044;-58
2022/01/11 03:17:56;;;;;;;51.22;26.30;;;0.30;99.90;;;;;;5011814;28;20121;-58
2022/01/11 03:20:21;;;;;;;53.00;27.02;;;0.30;99.90;;;;;;5011783;28;20069;-58
2022/01/11 03:22:47;;;;;;;52.60;27.75;;;0.30;99.90;;;;;;5011503;28;20514;-58
2022/01/11 03:25:13;;;;;;;59.75;28.58;;;0.40;99.90;;;;;;5011084;28;20524;-58
2022/01/11 03:27:40;;;;;;;56.58;27.65;;;0.30;99.90;;;;;;5011409;28;20060;-57
2022/01/11 03:30:07;;;;;;;64.03;29.13;;;0.30;99.90;;;;;;5011510;28;20041;-58
2022/01/11 03:32:33;;;;;;;61.67;28.90;;;0.40;99.90;;;;;;5011611;28;20392;-57
2022/01/11 03:34:59;;;;;;;61.58;28.55;;;0.30;99.90;;;;;;5011522;28;20042;-58
2022/01/11 03:37:24;;;;;;;56.85;29.13;;;0.30;99.90;;;;;;5011397;28;20042;-58
2022/01/11 03:39:50;;;;;;;66.85;30.70;;;0.30;99.90;;;;;;5011519;28;20041;-58
2022/01/11 03:42:16;;;;;;;61.40;29.65;;;0.30;99.90;;;;;;5010943;28;20068;-58
2022/01/11 03:44:42;;;;;;;58.35;29.13;;;0.30;99.90;;;;;;5011041;28;20072;-58
2022/01/11 03:47:08;;;;;;;56.20;27.27;;;0.30;99.90;;;;;;5011456;28;20117;-58
2022/01/11 03:49:34;;;;;;;65.05;30.38;;;0.30;99.90;;;;;;5011334;28;20041;-58
2022/01/11 03:51:59;;;;;;;56.92;28.88;;;0.30;99.90;;;;;;5011234;28;20034;-58
2022/01/11 03:54:29;;;;;;;57.92;28.52;;;0.40;99.90;;;;;;5011299;28;20049;-58
2022/01/11 03:56:55;;;;;;;;;;;0.40;99.90;;;;;;5011851;28;20361;-58
2022/01/11 03:59:21;;;;;;;58.15;28.17;;;0.40;99.90;;;;;;5010883;28;19917;-58
2022/01/11 04:01:48;;;;;;;60.25;26.95;;;0.40;99.90;;;;;;5011140;28;20132;-58
2022/01/11 04:04:14;;;;;;;65.22;28.77;;;0.40;99.90;;;;;;5011138;28;20057;-58
2022/01/11 04:06:40;;;;;;;67.18;28.90;;;0.40;99.90;;;;;;5010891;28;20503;-58
2022/01/11 04:09:08;;;;;;;55.85;27.15;;;0.40;99.90;;;;;;5009819;28;20034;-58
2022/01/11 04:11:34;;;;;;;64.43;27.48;;;0.40;99.90;;;;;;5009895;28;20041;-58
2022/01/11 04:14:00;;;;;;;55.03;27.30;;;0.30;99.90;;;;;;5010728;28;20046;-58
2022/01/11 04:16:26;;;;;;;55.72;27.25;;;0.30;99.90;;;;;;5010764;28;20041;-58
2022/01/11 04:18:51;;;;;;;63.28;27.70;;;0.40;99.90;;;;;;5011047;28;20086;-58
2022/01/11 04:21:17;;;;;;;58.78;27.58;;;0.30;99.90;;;;;;5010725;28;20088;-57
2022/01/11 04:23:43;;;;;;;54.97;27.77;;;0.30;99.90;;;;;;5010690;28;20086;-58
2022/01/11 04:26:09;;;;;;;55.60;28.08;;;0.30;99.90;;;;;;5010984;28;20038;-58
2022/01/11 04:28:35;;;;;;;65.80;29.98;;;0.30;99.90;;;;;;5010528;28;20483;-58
2022/01/11 04:31:00;;;;;;;62.47;29.08;;;0.30;99.90;;;;;;5010621;28;20125;-58
2022/01/11 04:33:27;;;;;;;64.05;29.02;;;0.30;99.90;;;;;;5010897;28;20050;-58
2022/01/11 04:35:53;;;;;;;61.88;29.00;;;0.30;99.90;;;;;;5010944;28;20038;-58
2022/01/11 04:38:21;;;;;;;56.83;27.88;;;0.30;99.90;;;;;;5013839;28;20042;-58
2022/01/11 04:40:47;;;;;;;69.70;30.23;;;0.30;99.90;;;;;;5014285;28;20049;-58
2022/01/11 04:43:13;;;;;;;58.90;28.75;;;0.30;99.90;;;;;;5013858;28;20054;-58
2022/01/11 04:45:39;;;;;;;56.08;27.77;;;0.30;99.90;;;;;;5013994;28;20095;-58
2022/01/11 04:48:05;;;;;;;59.95;28.70;;;0.30;99.90;;;;;;5014215;28;20046;-58
2022/01/11 04:50:32;;;;;;;56.63;27.02;;;0.30;99.90;;;;;;5014153;28;20034;-58
2022/01/11 04:52:58;;;;;;;57.53;26.65;;;0.30;99.90;;;;;;5013784;28;20085;-58
2022/01/11 04:55:25;;;;;;;64.30;28.58;;;0.30;99.90;;;;;;5014092;28;20048;-58
2022/01/11 04:57:50;;;;;;;65.03;28.33;;;0.30;99.90;;;;;;5014079;28;20042;-58
2022/01/11 05:00:18;;;;;;;59.00;26.88;;;0.30;99.90;;;;;;5013514;28;20128;-58
2022/01/11 05:02:44;;;;;;;56.55;27.48;;;0.30;99.90;;;;;;5013863;28;20117;-58
2022/01/11 05:05:10;;;;;;;61.40;28.10;;;0.40;99.90;;;;;;5013703;28;20038;-58
2022/01/11 05:07:36;;;;;;;62.78;28.00;;;0.50;99.90;;;;;;5013619;28;20030;-58
2022/01/11 05:10:04;;;;;;;63.95;27.60;;;0.40;99.90;;;;;;5013656;28;20166;-58
2022/01/11 05:12:30;;;;;;;56.33;26.88;;;0.40;99.90;;;;;;5013734;28;20042;-58
2022/01/11 05:14:56;;;;;;;58.38;27.92;;;0.40;99.90;;;;;;5013624;28;20050;-58
2022/01/11 05:17:22;;;;;;;53.97;26.20;;;0.40;99.90;;;;;;5012301;28;20399;-58
2022/01/11 05:19:48;;;;;;;57.58;25.35;;;0.40;99.90;;;;;;5013721;28;20037;-58
2022/01/11 05:22:14;;;;;;;50.83;25.40;;;0.40;99.90;;;;;;5013658;28;20049;-58
2022/01/11 05:24:40;;;;;;;55.10;27.08;;;0.40;99.90;;;;;;5013213;28;20038;-58
2022/01/11 05:27:06;;;;;;;68.95;26.98;;;0.40;99.90;;;;;;5013400;28;20098;-58
2022/01/11 05:29:32;;;;;;;56.45;25.30;;;0.50;99.90;;;;;;5013202;28;20094;-58
2022/01/11 05:31:58;;;;;;;54.58;26.02;;;0.50;99.90;;;;;;5013402;28;20038;-58
2022/01/11 05:34:25;;;;;;;50.78;26.27;;;0.50;99.90;;;;;;5013558;28;20041;-58
2022/01/11 05:36:52;;;;;;;54.28;25.48;;;0.50;99.90;;;;;;5013259;28;20037;-58
2022/01/11 05:39:18;;;;;;;49.92;25.10;;;0.50;99.90;;;;;;5013095;28;20042;-58
2022/01/11 05:41:44;;;;;;;44.53;24.58;;;0.50;99.90;;;;;;5013038;28;20548;-57
2022/01/11 05:44:09;;;;;;;48.50;25.35;;;0.60;99.90;;;;;;5013018;28;20049;-58
2022/01/11 05:46:35;;;;;;;48.65;24.73;;;0.60;99.90;;;;;;5013034;28;20038;-58
2022/01/11 05:49:01;;;;;;;49.28;24.45;;;0.60;99.90;;;;;;5012420;28;20042;-58
2022/01/11 05:51:27;;;;;;;48.45;25.10;;;0.60;99.90;;;;;;5013332;28;20045;-58
2022/01/11 05:53:53;;;;;;;46.15;24.35;;;0.60;99.90;;;;;;5012944;28;20105;-58
2022/01/11 05:56:20;;;;;;;51.65;25.50;;;0.60;99.90;;;;;;5013221;28;20077;-58
2022/01/11 05:58:46;;;;;;;48.00;24.38;;;0.60;99.90;;;;;;5011579;28;20053;-58
2022/01/11 06:01:13;;;;;;;47.72;24.05;;;0.60;99.90;;;;;;5012805;28;20038;-58
2022/01/11 06:03:39;;;;;;;46.67;24.75;;;0.60;99.90;;;;;;5012971;28;20050;-58
2022/01/11 06:06:04;;;;;;;48.30;25.33;;;0.60;99.90;;;;;;5013120;28;20547;-58
2022/01/11 06:08:30;;;;;;;50.83;24.65;;;0.60;99.90;;;;;;5012639;28;20552;-58
2022/01/11 06:10:57;;;;;;;47.78;24.73;;;0.50;99.90;;;;;;5012864;28;20197;-58
2022/01/11 06:13:23;;;;;;;49.88;25.63;;;0.50;99.90;;;;;;5013028;28;20090;-58
2022/01/11 06:15:49;;;;;;;53.97;25.83;;;0.50;99.90;;;;;;5012742;28;20049;-58
2022/01/11 06:18:15;;;;;;;51.05;24.65;;;0.50;99.90;;;;;;5012751;28;20046;-58
2022/01/11 06:20:41;;;;;;;48.97;23.83;;;0.50;99.90;;;;;;5012495;28;20079;-58
2022/01/11 06:23:07;;;;;;;48.03;23.83;;;0.50;99.90;;;;;;5012713;28;20125;-58
2022/01/11 06:25:32;;;;;;;42.42;23.75;;;0.50;99.90;;;;;;5012431;28;20041;-58
2022/01/11 06:27:58;;;;;;;44.47;23.50;;;0.50;99.90;;;;;;5012505;28;20120;-58
2022/01/11 06:30:25;;;;;;;43.08;22.95;;;0.50;99.90;;;;;;5012438;28;20034;-58
2022/01/11 06:32:50;;;;;;;43.47;23.23;;;0.50;99.90;;;;;;5012558;28;20045;-58
2022/01/11 06:35:18;;;;;;;44.08;23.33;;;0.50;99.90;;;;;;5012495;28;20106;-58
2022/01/11 06:37:45;;;;;;;55.90;25.85;;;0.50;99.90;;;;;;5012181;28;20468;-58
2022/01/11 06:40:13;;;;;;;52.42;25.13;;;0.50;99.90;;;;;;5012357;28;20049;-58
2022/01/11 06:42:39;;;;;;;50.92;24.80;;;0.50;99.90;;;;;;5011879;28;20132;-58
2022/01/11 06:45:06;;;;;;;44.38;23.08;;;0.50;99.90;;;;;;5012010;28;20073;-58
2022/01/11 06:47:32;;;;;;;44.53;23.80;;;0.50;99.90;;;;;;5012350;28;20052;-58
2022/01/11 06:49:57;;;;;;;45.13;23.77;;;0.50;99.90;;;;;;5012092;28;20116;-58
2022/01/11 06:52:23;;;;;;;47.42;25.05;;;0.40;99.90;;;;;;5012208;28;20387;-58
2022/01/11 06:54:49;;;;;;;54.67;25.00;;;0.50;99.90;;;;;;5012171;28;20117;-58
2022/01/11 06:57:14;;;;;;;48.75;24.20;;;0.50;99.90;;;;;;5012083;28;20396;-58
2022/01/11 06:59:40;;;;;;;46.78;23.40;;;0.50;99.90;;;;;;5010803;28;20038;-58
2022/01/11 07:02:06;;;;;;;46.28;23.45;;;0.50;99.90;;;;;;5012158;28;20045;-58
2022/01/11 07:04:34;;;;;;;47.90;24.02;;;0.40;99.90;;;;;;5012043;28;20040;-58
2022/01/11 07:07:00;;;;;;;41.63;22.95;;;0.50;99.90;;;;;;5011881;28;20467;-58
2022/01/11 07:09:25;;;;;;;47.80;24.85;;;0.50;99.90;;;;;;5012020;28;20045;-58
2022/01/11 07:11:51;;;;;;;47.33;23.60;;;0.40;99.90;;;;;;5012124;28;20037;-58
2022/01/11 07:14:17;;;;;;;46.50;22.73;;;0.40;99.90;;;;;;5011993;28;20068;-58
2022/01/11 07:16:48;;;;;;;45.90;23.75;;;0.40;99.90;;;;;;5011578;28;20392;-58
2022/01/11 07:19:17;;;;;;;44.78;22.90;;;0.40;99.90;;;;;;5011939;28;20046;-58
2022/01/11 07:21:46;;;;;;;50.25;23.15;;;0.40;99.90;;;;;;5011503;28;20042;-58
2022/01/11 07:24:14;;;;;;;43.55;23.33;;;0.40;99.90;;;;;;5011480;28;20536;-58
2022/01/11 07:26:40;;;;;;;44.63;24.17;;;0.40;99.90;;;;;;5011620;28;20117;-58
2022/01/11 07:29:07;;;;;;;46.92;25.02;;;0.40;99.90;;;;;;5011464;28;20134;-58
2022/01/11 07:31:34;;;;;;;50.95;23.67;;;0.40;99.90;;;;;;5011453;28;20073;-58
2022/01/11 07:33:59;;;;;;;48.25;23.92;;;0.50;99.90;;;;;;5011744;28;20049;-58
2022/01/11 07:36:25;;;;;;;44.85;24.20;;;0.40;99.90;;;;;;5011433;28;20038;-58
2022/01/11 07:38:51;;;;;;;43.10;22.73;;;0.40;99.90;;;;;;5011167;28;20037;-58
2022/01/11 07:41:17;;;;;;;47.08;22.80;;;0.40;99.90;;;;;;5011296;28;20495;-58
2022/01/11 07:43:44;;;;;;;48.47;23.50;;;0.40;99.90;;;;;;5011009;28;20492;-57
2022/01/11 07:46:09;;;;;;;47.90;22.95;;;0.50;99.90;;;;;;5011303;28;20120;-58
2022/01/11 07:48:35;;;;;;;45.78;24.15;;;0.50;99.90;;;;;;5011001;28;20167;-57
2022/01/11 07:51:01;;;;;;;44.05;22.90;;;0.50;99.90;;;;;;5011231;28;20034;-58
2022/01/11 07:53:26;;;;;;;42.33;23.17;;;0.50;99.90;;;;;;5011345;28;20049;-58
2022/01/11 07:55:52;;;;;;;44.40;23.13;;;0.60;99.90;;;;;;5011067;28;20504;-58
2022/01/11 07:58:18;;;;;;;41.75;23.33;;;0.60;99.90;;;;;;5011254;28;20479;-58
2022/01/11 08:00:44;;;;;;;46.00;22.77;;;0.50;99.90;;;;;;5011317;28;20081;-58
2022/01/11 08:03:10;;;;;;;47.05;23.15;;;0.50;99.90;;;;;;5010964;28;20120;-58
2022/01/11 08:05:36;;;;;;;44.08;23.30;;;0.60;99.90;;;;;;5010986;28;20456;-58
2022/01/11 08:08:01;;;;;;;41.83;22.85;;;0.60;99.90;;;;;;5011081;28;20045;-58
2022/01/11 08:10:27;;;;;;;42.95;23.20;;;0.60;99.90;;;;;;5010510;28;20085;-58
2022/01/11 08:12:53;;;;;;;41.20;20.73;;;0.60;99.90;;;;;;5011108;28;20042;-58
2022/01/11 08:15:19;;;;;;;40.17;21.65;;;0.60;99.90;;;;;;5010833;28;20041;-58
2022/01/11 08:17:46;;;;;;;38.92;20.80;;;0.60;99.90;;;;;;5011041;28;20038;-58
2022/01/11 08:20:12;;;;;;;41.25;23.30;;;0.60;99.90;;;;;;5010437;28;20053;-58
2022/01/11 08:22:38;;;;;;;51.42;22.73;;;0.60;99.90;;;;;;5010777;28;20049;-58
2022/01/11 08:25:05;;;;;;;40.20;21.70;;;0.60;99.90;;;;;;5010680;28;20383;-58
2022/01/11 08:27:33;;;;;;;41.92;21.42;;;0.70;99.90;;;;;;5010337;28;20502;-58
2022/01/11 08:29:59;;;;;;;41.13;22.63;;;0.60;99.90;;;;;;5010665;28;20060;-58
2022/01/11 08:32:25;;;;;;;37.67;21.85;;;0.60;99.90;;;;;;5010733;28;20042;-58
2022/01/11 08:34:51;;;;;;;46.15;22.58;;;0.60;99.90;;;;;;5010203;28;20052;-58
2022/01/11 08:37:17;;;;;;;39.75;21.27;;;0.70;99.90;;;;;;5010441;28;20054;-58
2022/01/11 08:39:43;;;;;;;38.63;21.45;;;0.60;99.90;;;;;;5010330;28;20046;-58
2022/01/11 08:42:12;;;;;;;39.90;21.70;;;0.70;99.90;;;;;;5010029;28;20054;-58
2022/01/11 08:44:42;;;;;;;;;;;0.60;99.90;;;;;;5010567;28;20125;-58
2022/01/11 08:47:08;;;;;;;40.90;21.58;;;0.60;99.90;;;;;;5010309;28;19921;-59
2022/01/11 08:49:34;;;;;;;40.08;20.83;;;0.70;99.90;;;;;;5010291;28;20395;-58
2022/01/11 08:52:00;;;;;;;32.10;18.60;;;0.70;99.90;;;;;;5010208;28;20034;-58
2022/01/11 08:54:25;;;;;;;36.92;19.63;;;0.70;99.90;;;;;;5009586;28;20051;-58
2022/01/11 08:56:54;;;;;;;39.85;19.35;;;0.70;99.90;;;;;;5009721;28;20042;-59
2022/01/11 08:59:19;;;;;;;35.58;18.90;;;0.80;99.90;;;;;;5010017;28;20042;-59
2022/01/11 09:01:45;;;;;;;35.80;18.38;;;0.80;99.90;;;;;;5009889;28;20110;-58
2022/01/11 09:04:11;;;;;;;37.85;19.60;;;0.80;99.90;;;;;;5010162;28;20041;-59
2022/01/11 09:06:37;;;;;;;33.67;19.58;;;0.70;99.90;;;;;;5009967;28;20045;-58
2022/01/11 09:09:03;;;;;;;35.55;18.70;;;0.70;99.90;;;;;;5009710;28;20044;-59
2022/01/11 09:11:29;;;;;;;34.35;17.95;;;0.70;99.90;;;;;;5009377;28;20117;-59
2022/01/11 09:13:55;;;;;;;44.40;19.63;;;0.70;99.90;;;;;;5009739;28;20042;-59
2022/01/11 09:16:23;;;;;;;33.58;18.10;;;0.70;99.90;;;;;;5009608;28;20111;-59
2022/01/11 09:18:49;;;;;;;32.10;18.30;;;0.70;99.90;;;;;;5009789;28;20046;-59
2022/01/11 09:21:16;;;;;;;28.75;16.60;;;0.60;99.90;;;;;;5009771;28;20042;-59
2022/01/11 09:23:42;;;;;;;36.72;18.67;;;0.60;99.90;;;;;;5011353;28;20227;-59
2022/01/11 09:26:08;;;;;;;37.00;18.17;;;0.50;99.90;;;;;;5012648;28;20113;-59
2022/01/11 09:28:33;;;;;;;27.92;17.75;;;0.40;99.90;;;;;;5012662;28;20476;-58
2022/01/11 09:30:59;;;;;;;29.75;17.45;;;0.40;99.90;;;;;;5012635;28;20070;-59
2022/01/11 09:33:25;;;;;;;30.60;18.10;;;0.40;99.90;;;;;;5012577;28;20046;-59
2022/01/11 09:35:51;;;;;;;29.98;16.83;;;0.50;99.90;;;;;;5013070;28;20046;-59
2022/01/11 09:38:17;;;;;;;28.83;17.70;;;0.50;99.90;;;;;;5012984;28;20049;-59
2022/01/11 09:40:43;;;;;;;28.10;15.80;;;0.60;99.90;;;;;;5012368;28;20038;-59
2022/01/11 09:43:10;;;;;;;30.10;16.33;;;0.60;99.90;;;;;;5010799;28;20058;-59
2022/01/11 09:45:37;;;;;;;29.25;16.10;;;0.60;99.90;;;;;;5012410;28;20125;-59
2022/01/11 09:48:03;;;;;;;27.00;15.27;;;0.50;99.90;;;;;;5011264;28;20060;-59
2022/01/11 09:50:29;;;;;;;28.80;15.75;;;0.50;99.90;;;;;;5011755;28;20041;-59
2022/01/11 09:52:56;;;;;;;28.27;16.75;;;0.50;99.90;;;;;;5011917;28;20042;-59
2022/01/11 09:55:22;;;;;;;29.85;16.40;;;0.50;99.90;;;;;;5011733;28;20476;-59
2022/01/11 09:57:49;;;;;;;32.15;17.50;;;0.50;99.90;;;;;;5011789;28;20037;-59
2022/01/11 10:00:15;;;;;;;28.95;16.80;;;0.50;99.90;;;;;;5011781;28;20094;-59
2022/01/11 10:02:42;;;;;;;29.67;16.70;;;0.50;99.90;;;;;;5012014;28;20030;-59
2022/01/11 10:05:10;;;;;;;24.15;15.93;;;0.90;99.90;;;;;;5012093;28;20040;-59
2022/01/11 10:07:40;;;;;;;29.63;17.50;;;0.50;99.90;;;;;;5012431;28;20046;-58
2022/01/11 10:10:26;;;;;;;25.88;15.48;;;0.60;99.90;;;;;;5011993;28;20042;-59
2022/01/11 10:13:03;;;;;;;27.85;16.25;;;0.50;99.90;;;;;;5011593;28;20037;-59
2022/01/11 10:15:36;;;;;;;28.50;16.67;;;0.50;99.90;;;;;;5012145;28;20438;-59
2022/01/11 10:18:03;;;;;;;24.80;15.63;;;0.60;99.90;;;;;;5011172;28;20053;-59
2022/01/11 10:20:29;;;;;;;27.70;16.00;;;0.60;99.90;;;;;;5011265;28;20372;-59
2022/01/11 10:22:56;;;;;;;25.90;15.38;;;0.50;99.90;;;;;;5011783;28;20048;-59
2022/01/11 10:25:23;;;;;;;30.33;16.42;;;0.50;99.90;;;;;;5011862;28;20545;-59
2022/01/11 10:27:57;;;;;;;28.80;16.65;;;0.60;99.90;;;;;;5011609;28;20042;-59
2022/01/11 10:30:25;;;;;;;27.50;16.65;;;0.60;99.90;;;;;;5011167;28;20091;-59
2022/01/11 10:32:53;;;;;;;27.55;16.48;;;0.60;99.90;;;;;;5011392;28;20388;-59
2022/01/11 10:35:23;;;;;;;27.75;17.20;;;0.60;99.90;;;;;;5011377;28;20038;-59
2022/01/11 10:37:52;;;;;;;29.50;17.70;;;0.60;99.90;;;;;;5011865;28;20042;-59
2022/01/11 10:40:19;;;;;;;;;;;0.70;99.90;;;;;;5012318;28;20386;-59
2022/01/11 10:42:52;;;;;;;28.27;15.18;;;0.60;99.90;;;;;;5011327;28;19921;-59
2022/01/11 10:45:24;;;;;;;29.67;17.60;;;0.60;99.90;;;;;;5011600;28;20095;-59
2022/01/11 10:47:53;;;;;;;35.72;18.35;;;0.60;99.90;;;;;;5010143;28;20037;-59
2022/01/11 10:50:28;;;;;;;33.20;18.33;;;0.70;99.90;;;;;;5011811;28;20052;-59
2022/01/11 10:52:59;;;;;;;32.42;18.58;;;0.70;99.90;;;;;;5011554;28;20113;-59
2022/01/11 10:55:28;;;;;;;31.85;17.25;;;0.80;99.90;;;;;;5011828;28;20099;-59
2022/01/11 10:57:55;;;;;;;;;;;0.80;99.90;;;;;;5011534;28;20107;-59
2022/01/11 11:00:37;;;;;;;35.42;17.40;;;0.80;99.90;;;;;;5011446;28;19944;-59
2022/01/11 11:03:30;;;;;;;31.33;17.45;;;0.80;99.90;;;;;;5010965;28;20048;-59
2022/01/11 11:06:07;;;;;;;29.13;18.60;;;0.90;99.90;;;;;;5011688;28;20060;-59
2022/01/11 11:08:36;;;;;;;30.48;17.13;;;1.00;99.90;;;;;;5011493;28;20091;-59
2022/01/11 11:11:01;;;;;;;;;;;1.10;99.90;;;;;;5010323;28;20037;-59
2022/01/11 11:13:42;;;;;;;28.67;17.23;;;1.20;99.90;;;;;;5011531;28;20252;-59
2022/01/11 11:16:12;;;;;;;27.48;17.60;;;1.40;99.90;;;;;;5010359;28;20074;-60
2022/01/11 11:18:41;;;;;;;30.65;17.17;;;1.60;99.90;;;;;;5009804;28;20492;-60
2022/01/11 11:21:25;;;;;;;28.42;16.75;;;1.80;99.90;;;;;;5009683;28;20407;-59
2022/01/11 11:24:00;;;;;;;31.80;16.75;;;1.90;99.90;;;;;;5009827;28;20034;-59
2022/01/11 11:26:30;;;;;;;28.88;17.30;;;2.00;99.90;;;;;;5010065;28;20113;-59
2022/01/11 11:28:55;;;;;;;;;;;2.10;99.90;;;;;;5010177;28;20042;-60
2022/01/11 11:31:22;;;;;;;32.35;17.95;;;2.20;99.90;;;;;;5009808;28;19925;-60
2022/01/11 11:33:50;;;;;;;28.58;17.48;;;2.30;99.90;;;;;;5009994;28;20049;-60
2022/01/11 11:36:17;;;;;;;29.63;16.77;;;2.40;99.90;;;;;;5009833;28;20042;-60
2022/01/11 11:38:55;;;;;;;29.75;17.88;;;2.50;99.90;;;;;;5009687;28;20128;-60
2022/01/11 11:41:23;;;;;;;28.02;17.38;;;2.60;99.90;;;;;;5009372;28;20095;-60
2022/01/11 11:44:15;;;;;;;28.70;17.25;;;2.70;99.90;;;;;;5009238;28;20100;-60
2022/01/11 11:46:52;;;;;;;31.08;16.98;;;2.80;99.90;;;;;;5008793;28;20082;-60
2022/01/11 11:49:51;;;;;;;25.13;16.15;;;2.90;99.90;;;;;;5009565;28;20042;-60
2022/01/11 11:52:28;;;;;;;25.63;16.20;;;2.90;99.90;;;;;;5009390;28;20041;-60
2022/01/11 11:55:00;;;;;;;26.27;16.88;;;2.90;99.90;;;;;;5009542;28;20094;-60
2022/01/11 11:57:28;;;;;;;26.80;17.80;;;2.90;99.90;;;;;;5009303;28;20117;-60
2022/01/11 11:59:58;;;;;;;32.03;18.17;;;2.90;99.90;;;;;;5009566;28;20074;-60
2022/01/11 12:02:34;;;;;;;28.35;17.50;;;2.90;99.90;;;;;;5010076;28;20124;-59
2022/01/11 12:05:00;;;;;;;25.65;17.10;;;2.90;99.90;;;;;;5010389;28;20124;-59
2022/01/11 12:07:40;;;;;;;27.02;17.23;;;3.00;99.90;;;;;;5010346;28;20038;-59
2022/01/11 12:10:20;;;;;;;24.23;16.50;;;2.90;99.90;;;;;;5010576;28;20210;-59
2022/01/11 12:12:50;;;;;;;29.45;15.25;;;2.90;99.90;;;;;;5008439;28;20046;-59
2022/01/11 12:15:21;;;;;;;31.83;18.25;;;2.90;99.90;;;;;;5010221;28;20535;-59
2022/01/11 12:17:59;;;;;;;29.33;18.30;;;3.00;99.90;;;;;;5010382;28;20042;-60
2022/01/11 12:20:56;;;;;;;30.08;17.27;;;2.90;99.90;;;;;;5010131;28;20042;-59
2022/01/11 12:23:34;;;;;;;27.60;17.95;;;3.00;99.90;;;;;;5010316;28;20050;-59
2022/01/11 12:26:13;;;;;;;30.83;17.30;;;3.00;99.90;;;;;;5010389;28;20038;-59
2022/01/11 12:28:39;;;;;;;29.73;17.38;;;3.00;99.90;;;;;;5010199;28;20037;-59
2022/01/11 12:31:25;;;;;;;29.70;17.00;;;3.00;99.90;;;;;;5010095;28;20041;-59
2022/01/11 12:33:51;;;;;;;28.17;16.83;;;3.00;99.90;;;;;;5009861;28;20125;-59
2022/01/11 12:36:17;;;;;;;27.83;16.73;;;3.00;99.90;;;;;;5009500;28;20391;-59
2022/01/11 12:39:04;;;;;;;25.15;16.30;;;3.00;99.90;;;;;;5010198;28;20042;-59
2022/01/11 12:41:33;;;;;;;30.23;18.48;;;3.00;99.90;;;;;;5009961;28;20074;-59
2022/01/11 12:47:06;;;;;;;28.13;16.55;;;3.10;99.90;;;;;;5009883;28;20050;-59